This is the latest recevied weather packets stored in our database for station/object G6UIM. If no packets are shown the sender has not sent any weather packets the latest 10 day(s).
| Time | Temp. | Humidity | Pressure | Rain* | Wind** | Luminosity | Snow |
|---|---|---|---|---|---|---|---|
| 1777630817 | 15.56° C | 80% | 1021.6 hPa | 0 mm | - | 490 W/m² | - |
| 1777629618 | 15° C | 83% | 1021.6 hPa | 0 mm | - | 423 W/m² | - |
| 1777629018 | 14.44° C | 87% | 1021.6 hPa | 0 mm | - | 435 W/m² | - |
| 1777628417 | 13.33° C | 88% | 1021.5 hPa | 0 mm | - | 387 W/m² | - |
| 1777624817 | 12.78° C | 90% | 1021.3 hPa | 0 mm | - | 103 W/m² | - |
| 1777623617 | 12.78° C | 90% | 1021.1 hPa | 0 mm | - | 114 W/m² | - |
| 1777619418 | 12.78° C | 89% | 1020.5 hPa | 0 mm | - | 42 W/m² | - |
| 1777616417 | 12.78° C | 89% | 1020.4 hPa | 0 mm | - | 46 W/m² | - |
| 1777612817 | 12.22° C | 87% | 1020 hPa | 0 mm | - | 7 W/m² | - |
| 1777611017 | 11.67° C | 86% | 1019.9 hPa | 0 mm | - | 0 W/m² | - |
| 1777607417 | 11.11° C | 85% | 1019.7 hPa | 0 mm | - | 0 W/m² | - |
| 1777603817 | 11.67° C | 84% | 1019.4 hPa | 0 mm | - | 0 W/m² | - |
| 1777603217 | 11.67° C | 84% | 1019.2 hPa | 0 mm | - | 0 W/m² | - |
| 1777602617 | 11.67° C | 84% | 1019.2 hPa | 0 mm | - | 0 W/m² | - |
| 1777600817 | 11.67° C | 84% | 1019.2 hPa | 0 mm | - | 0 W/m² | - |
| 1777598437 | 12.22° C | 84% | 1019.1 hPa | 0 mm | - | 0 W/m² | - |
| 1777597818 | 12.22° C | 83% | 1019 hPa | 0 mm | - | 0 W/m² | - |
| 1777596617 | 12.22° C | 83% | 1019.4 hPa | 0 mm | - | 0 W/m² | - |
| 1777594217 | 12.22° C | 83% | 1019.2 hPa | 0 mm | - | 0 W/m² | - |
| 1777593617 | 12.22° C | 83% | 1019.4 hPa | 0 mm | - | 0 W/m² | - |
| 1777588237 | 12.78° C | 79% | 1019.5 hPa | 0 mm | - | 0 W/m² | - |
| 1777574417 | 13.33° C | 77% | 1018.7 hPa | 0 mm | - | 29 W/m² | - |
| 1777561816 | 14.44° C | 76% | 1019.3 hPa | 0 mm | - | 657 W/m² | - |
| 1777560016 | 12.78° C | 78% | 1019.2 hPa | 0 mm | - | 214 W/m² | - |
| 1777559436 | 13.33° C | 77% | 1019.3 hPa | 0 mm | - | 189 W/m² | - |
* Rain latest hour (hover to see other rain measurements)
** Current wind speed in m/s (hover to see current wind gust speed)